createdAt,value
2022-08-28T00:03:07.143Z,76.45
2022-08-28T00:10:10.449Z,77.05
2022-08-28T00:17:16.573Z,77.29
2022-08-28T00:24:19.690Z,77.24
2022-08-28T00:31:28.157Z,77.57
2022-08-28T00:38:31.237Z,77.61
2022-08-28T00:45:28.788Z,77.50
2022-08-28T00:52:32.227Z,77.46
2022-08-28T00:59:34.074Z,77.86
2022-08-28T01:06:37.348Z,77.93
2022-08-28T01:13:35.317Z,78.07
2022-08-28T01:20:38.541Z,78.11
2022-08-28T01:27:31.061Z,77.96
2022-08-28T01:34:34.344Z,77.55
2022-08-28T01:41:37.203Z,77.60
2022-08-28T01:48:33.299Z,77.47
2022-08-28T01:55:35.824Z,77.46
2022-08-28T02:02:21.998Z,78.01
2022-08-28T02:09:25.024Z,78.32
2022-08-28T02:16:28.078Z,78.50
2022-08-28T02:23:31.159Z,78.92
2022-08-28T02:30:34.429Z,78.97
2022-08-28T02:37:37.870Z,79.13
2022-08-28T02:44:40.873Z,78.93
2022-08-28T02:51:43.007Z,78.75
2022-08-28T02:58:46.102Z,79.17
2022-08-28T03:05:49.126Z,79.01
2022-08-28T03:12:51.948Z,78.80
2022-08-28T03:19:54.950Z,78.67
2022-08-28T03:26:40.581Z,78.60
2022-08-28T03:33:44.202Z,79.00
2022-08-28T03:40:41.323Z,78.89
2022-08-28T03:47:44.314Z,78.58
2022-08-28T03:54:38.104Z,78.49
2022-08-28T04:01:43.647Z,78.40
2022-08-28T04:08:46.814Z,78.28
2022-08-28T04:15:50.114Z,78.15
2022-08-28T04:22:55.112Z,78.05
2022-08-28T04:29:51.498Z,78.01
2022-08-28T04:36:54.802Z,77.85
2022-08-28T04:43:58.255Z,78.02
2022-08-28T04:50:50.569Z,78.04
2022-08-28T04:57:54.118Z,78.10
2022-08-28T05:04:56.355Z,78.01
2022-08-28T05:11:53.624Z,78.01
2022-08-28T05:18:50.429Z,78.07
2022-08-28T05:25:53.718Z,78.10
2022-08-28T05:32:56.704Z,78.08
2022-08-28T05:39:59.695Z,78.13
2022-08-28T05:47:03.110Z,78.09
2022-08-28T05:54:06.210Z,78.00
2022-08-28T06:01:09.454Z,77.90
2022-08-28T06:08:06.782Z,77.86
2022-08-28T06:15:10.265Z,77.46
2022-08-28T06:22:07.753Z,77.01
2022-08-28T06:29:11.435Z,76.69
2022-08-28T06:36:14.518Z,76.44
2022-08-28T06:43:10.776Z,76.18
2022-08-28T06:50:13.863Z,76.23
2022-08-28T06:57:11.060Z,76.17
2022-08-28T07:04:14.073Z,75.80
2022-08-28T07:11:16.894Z,75.52
2022-08-28T07:18:08.540Z,75.27
2022-08-28T07:24:51.966Z,74.89
2022-08-28T07:32:01.004Z,74.12
2022-08-28T07:39:04.059Z,73.68
2022-08-28T07:45:47.942Z,73.14
2022-08-28T07:52:40.015Z,72.72
2022-08-28T07:59:43.496Z,72.61
2022-08-28T08:06:57.866Z,72.15
2022-08-28T08:14:01.542Z,71.72
2022-08-28T08:21:04.561Z,71.18
2022-08-28T08:28:07.471Z,71.18
2022-08-28T08:34:53.696Z,70.55
2022-08-28T08:42:09.394Z,70.31
2022-08-28T08:49:15.358Z,69.89
2022-08-28T08:56:35.605Z,69.66
2022-08-28T09:03:36.273Z,69.86
2022-08-28T09:10:45.365Z,69.46
2022-08-28T09:17:33.880Z,69.55
2022-08-28T09:24:36.994Z,69.38
2022-08-28T09:31:43.429Z,69.30
2022-08-28T09:38:56.114Z,68.75
2022-08-28T09:45:52.995Z,67.99
2022-08-28T09:52:42.306Z,68.18
2022-08-28T09:59:48.181Z,67.75
2022-08-28T10:06:37.304Z,67.75
2022-08-28T10:13:54.850Z,67.32
2022-08-28T10:21:24.019Z,67.47
2022-08-28T10:28:22.515Z,67.51
2022-08-28T10:35:22.840Z,66.00
2022-08-28T10:42:36.053Z,65.36
2022-08-28T10:49:57.667Z,65.20
2022-08-28T10:56:56.105Z,64.94
2022-08-28T11:03:42.121Z,64.82
2022-08-28T11:11:00.507Z,64.39
2022-08-28T11:18:03.493Z,64.80
2022-08-28T11:25:26.543Z,63.81
2022-08-28T11:31:52.555Z,63.11
2022-08-28T11:38:40.792Z,62.81
2022-08-28T11:45:50.028Z,63.29
2022-08-28T11:52:54.379Z,62.85
2022-08-28T11:59:35.320Z,63.32
2022-08-28T12:06:27.938Z,63.45
2022-08-28T12:13:25.398Z,63.10
2022-08-28T12:20:23.469Z,63.48
2022-08-28T12:27:25.786Z,62.78
2022-08-28T12:34:10.772Z,62.46
2022-08-28T12:40:52.975Z,62.17
2022-08-28T12:47:08.077Z,62.24
2022-08-28T12:54:16.931Z,62.15
2022-08-28T13:00:56.424Z,62.19
2022-08-28T13:07:59.688Z,61.86
2022-08-28T13:14:08.694Z,62.52
2022-08-28T13:20:47.611Z,62.94
2022-08-28T13:27:16.736Z,62.64
2022-08-28T13:33:50.641Z,63.03
2022-08-28T13:40:16.729Z,63.13
2022-08-28T13:46:49.768Z,63.15
2022-08-28T13:53:45.827Z,63.58
2022-08-28T14:00:18.057Z,63.88
2022-08-28T14:07:04.117Z,64.16
2022-08-28T14:14:00.153Z,64.64
2022-08-28T14:21:03.640Z,65.03
2022-08-28T14:28:06.812Z,65.79
2022-08-28T14:35:09.937Z,66.49
2022-08-28T14:41:36.292Z,67.35
2022-08-28T14:48:22.420Z,68.38
2022-08-28T14:55:25.954Z,69.68
2022-08-28T15:02:22.694Z,70.40
2022-08-28T15:09:28.427Z,70.92
2022-08-28T15:16:32.046Z,70.28
2022-08-28T15:23:33.550Z,71.10
2022-08-28T15:30:37.122Z,71.74
2022-08-28T15:37:32.955Z,72.56
2022-08-28T15:44:29.028Z,73.08
2022-08-28T15:51:14.251Z,73.56
2022-08-28T15:58:17.135Z,74.19
2022-08-28T16:05:08.690Z,74.54
2022-08-28T16:12:11.727Z,75.01
2022-08-28T16:18:48.254Z,75.70
2022-08-28T16:25:50.984Z,76.10
2022-08-28T16:32:54.231Z,76.18
2022-08-28T16:38:59.749Z,76.56
2022-08-28T16:45:18.736Z,76.71
2022-08-28T16:51:30.922Z,76.85
2022-08-28T16:57:53.429Z,77.18
2022-08-28T17:04:01.513Z,77.22
2022-08-28T17:10:38.678Z,77.33
2022-08-28T17:16:31.698Z,77.54
2022-08-28T17:22:45.617Z,77.64
2022-08-28T17:29:05.495Z,77.88
2022-08-28T17:35:06.518Z,78.04
2022-08-28T17:41:33.631Z,78.21
2022-08-28T17:48:25.393Z,78.20
2022-08-28T17:55:08.532Z,78.14
2022-08-28T18:02:01.862Z,78.15
2022-08-28T18:08:56.165Z,78.32
2022-08-28T18:15:19.333Z,78.43
2022-08-28T18:21:55.049Z,78.33
2022-08-28T18:28:40.759Z,78.40
2022-08-28T18:35:12.570Z,78.61
2022-08-28T18:41:43.574Z,78.64
2022-08-28T18:48:18.677Z,78.75
2022-08-28T18:55:08.711Z,78.76
2022-08-28T19:01:39.461Z,78.72
2022-08-28T19:08:42.720Z,78.76
2022-08-28T19:15:26.058Z,78.76
2022-08-28T19:22:07.846Z,78.99
2022-08-28T19:29:11.166Z,79.00
2022-08-28T19:35:24.458Z,78.86
2022-08-28T19:41:49.191Z,78.85
2022-08-28T19:48:19.350Z,78.88
2022-08-28T19:55:05.442Z,79.13
2022-08-28T20:02:07.952Z,79.22
2022-08-28T20:09:12.902Z,79.34
2022-08-28T20:16:00.735Z,79.75
2022-08-28T20:23:03.961Z,79.79
2022-08-28T20:29:59.676Z,79.89
2022-08-28T20:37:22.855Z,79.91
2022-08-28T20:44:26.175Z,80.04
2022-08-28T20:50:55.817Z,80.13
2022-08-28T20:57:42.071Z,80.27
2022-08-28T21:04:34.493Z,80.43
2022-08-28T21:11:07.692Z,80.53
2022-08-28T21:17:34.961Z,80.81
2022-08-28T21:24:02.291Z,80.98
2022-08-28T21:30:40.622Z,81.25
2022-08-28T21:37:34.017Z,81.46
2022-08-28T21:44:20.313Z,81.71
2022-08-28T21:51:23.619Z,81.86
2022-08-28T21:58:10.847Z,81.87
2022-08-28T22:05:15.086Z,81.93
2022-08-28T22:12:08.163Z,81.99
2022-08-28T22:18:46.287Z,82.08
2022-08-28T22:25:49.245Z,82.14
2022-08-28T22:32:45.276Z,82.11
2022-08-28T22:39:29.525Z,82.14
2022-08-28T22:46:22.765Z,82.06
2022-08-28T22:53:09.677Z,81.89
2022-08-28T23:00:06.353Z,81.74
2022-08-28T23:06:47.833Z,81.50
2022-08-28T23:13:32.762Z,81.39
2022-08-28T23:20:35.847Z,81.22
2022-08-28T23:27:19.377Z,80.96
2022-08-28T23:34:18.732Z,80.87
2022-08-28T23:41:12.154Z,80.93
2022-08-28T23:48:10.168Z,80.93
2022-08-28T23:54:33.840Z,80.88
